Time;durP1;ratioP1;P1;durP2;ratioP2;P2;SDS_P1;SDS_P2;PMS_P1;PMS_P2;Temp;Humidity;BMP_temperature;BMP_pressure;BME280_temperature;BME280_humidity;BME280_pressure;Samples;Min_cycle;Max_cycle;Signal;HPM_P1;HPM_P2
2021/07/23 00:01:12;;;;;;;15.07;7.07;;;16.10;99.90;;;12.95;100.00;101847.31;3525893;39;101328;-84
2021/07/23 00:03:40;;;;;;;9.37;5.63;;;16.00;99.90;;;12.99;100.00;101872.91;3528456;39;100612;-84
2021/07/23 00:06:07;;;;;;;8.00;5.80;;;14.90;99.90;;;13.14;100.00;101897.56;3528887;39;100057;-83
2021/07/23 00:08:34;;;;;;;11.83;6.57;;;14.90;99.90;;;13.14;100.00;101922.66;3527128;39;100923;-82
2021/07/23 00:11:01;;;;;;;8.97;5.97;;;14.80;99.90;;;13.09;100.00;101930.25;3527698;39;101342;-83
2021/07/23 00:13:30;;;;;;;12.53;6.23;;;14.80;99.90;;;12.95;100.00;101944.88;3532482;39;99986;-81
2021/07/23 00:15:57;;;;;;;11.43;5.90;;;14.10;99.90;;;12.88;100.00;101975.09;3546848;39;99459;-82
2021/07/23 00:18:24;;;;;;;9.90;6.07;;;14.70;99.90;;;12.82;100.00;102002.50;3533241;39;100104;-82
2021/07/23 00:20:51;;;;;;;12.07;6.10;;;14.70;99.90;;;12.88;100.00;102037.72;3527339;39;101143;-82
2021/07/23 00:23:18;;;;;;;12.10;7.93;;;14.70;99.90;;;12.94;100.00;102079.34;3522235;39;101107;-82
2021/07/23 00:25:45;;;;;;;12.67;6.70;;;14.60;99.90;;;12.86;100.00;102084.50;3525478;39;100150;-82
2021/07/23 00:28:14;;;;;;;12.23;6.80;;;15.60;99.90;;;12.80;100.00;102107.38;3528090;39;101261;-83
2021/07/23 00:30:42;;;;;;;10.00;6.00;;;14.60;99.90;;;12.73;100.00;102135.75;3526333;39;103184;-83
2021/07/23 00:33:11;;;;;;;9.50;6.07;;;14.60;99.90;;;12.68;100.00;102150.53;3523487;39;100732;-82
2021/07/23 00:35:38;;;;;;;11.23;7.07;;;14.50;99.90;;;12.61;100.00;102171.66;3518221;39;100155;-82
2021/07/23 00:38:06;;;;;;;11.23;6.47;;;15.40;99.90;;;12.54;100.00;102190.09;3524929;39;103358;-82
2021/07/23 00:40:34;;;;;;;10.97;6.37;;;14.50;99.90;;;12.62;100.00;102224.38;3517839;39;101071;-82
2021/07/23 00:43:02;;;;;;;11.90;6.30;;;15.10;99.90;;;12.53;100.00;102231.34;3516590;39;102285;-81
2021/07/23 00:45:29;;;;;;;12.03;6.67;;;14.50;99.90;;;12.48;100.00;102244.31;3508363;39;100182;-83
2021/07/23 00:48:01;;;;;;;10.20;6.47;;;14.40;99.90;;;12.40;100.00;102245.88;3516814;39;103079;-83
2021/07/23 00:50:31;;;;;;;10.33;6.47;;;15.40;99.90;;;12.37;100.00;102262.22;3517433;39;103035;-83
2021/07/23 00:52:59;;;;;;;13.83;6.33;;;15.00;99.90;;;12.34;100.00;102259.81;3526032;39;102771;-82
2021/07/23 00:55:28;;;;;;;11.63;7.43;;;15.00;99.90;;;12.27;100.00;102256.75;3525925;39;100255;-80
2021/07/23 00:57:58;;;;;;;9.67;6.23;;;14.20;99.90;;;12.28;100.00;102265.66;3526339;39;102398;-88
2021/07/23 01:00:25;;;;;;;11.00;7.27;;;14.20;99.90;;;12.31;100.00;102282.38;3539313;39;100480;-82
2021/07/23 01:03:06;;;;;;;12.17;6.77;;;14.20;99.90;;;12.43;100.00;102272.50;3522293;39;101491;-83
2021/07/23 01:05:36;;;;;;;9.40;6.37;;;14.20;99.90;;;12.68;100.00;102260.66;3529141;39;99983;-81
2021/07/23 01:08:06;;;;;;;11.80;7.53;;;14.20;99.90;;;12.46;100.00;102223.94;3527309;39;103320;-82
2021/07/23 01:10:38;;;;;;;10.13;6.30;;;14.10;99.90;;;12.35;100.00;102218.56;3528214;39;102776;-82
2021/07/23 01:13:16;;;;;;;14.27;7.20;;;14.70;99.90;;;12.25;100.00;102213.06;3526953;39;102097;-82
2021/07/23 01:15:45;;;;;;;9.27;6.23;;;14.10;99.90;;;12.16;100.00;102203.91;3519624;39;100316;-82
2021/07/23 01:18:16;;;;;;;9.40;6.47;;;14.10;99.90;;;12.16;100.00;102208.44;3526457;39;103230;-83
2021/07/23 01:20:49;;;;;;;10.40;6.30;;;14.90;99.90;;;12.20;100.00;102208.06;3520333;39;103166;-83
2021/07/23 01:23:29;;;;;;;12.23;6.90;;;14.00;99.90;;;12.16;100.00;102203.06;3518195;39;102343;-83
2021/07/23 01:25:59;;;;;;;8.93;5.80;;;14.00;99.90;;;12.11;100.00;102200.78;3527284;39;100485;-82
2021/07/23 01:28:31;;;;;;;15.10;6.83;;;14.00;99.90;;;12.11;100.00;102211.50;3527635;39;103427;-81
2021/07/23 01:31:04;;;;;;;11.47;6.27;;;14.60;99.90;;;12.23;100.00;102221.25;3518063;39;102485;-82
2021/07/23 01:33:38;;;;;;;11.30;6.37;;;14.40;99.90;;;12.23;100.00;102213.22;3521703;39;100569;-83
2021/07/23 01:36:08;;;;;;;10.57;7.17;;;13.90;99.90;;;12.20;100.00;102207.22;3537687;39;100043;-83
2021/07/23 01:38:45;;;;;;;9.27;6.37;;;14.50;99.90;;;12.20;100.00;102191.97;3527860;39;103556;-83
2021/07/23 01:41:13;;;;;;;11.40;6.07;;;14.80;99.90;;;12.22;100.00;102186.50;3517812;39;103040;-82
2021/07/23 01:43:41;;;;;;;8.20;5.37;;;13.90;99.90;;;12.20;100.00;102177.69;3518487;39;102206;-83
2021/07/23 01:46:08;;;;;;;12.90;7.50;;;14.00;99.90;;;12.12;100.00;102164.03;3528045;39;100128;-82
2021/07/23 01:48:41;;;;;;;8.50;6.00;;;13.90;99.90;;;12.07;100.00;102155.50;3541051;39;100654;-84
2021/07/23 01:51:19;;;;;;;10.57;5.83;;;13.90;99.90;;;12.08;100.00;102149.16;3537049;39;102307;-83
2021/07/23 01:53:50;;;;;;;8.10;5.57;;;13.80;99.90;;;12.03;100.00;102138.78;3528362;39;102397;-83
2021/07/23 01:56:17;;;;;;;11.97;7.00;;;14.20;99.90;;;11.99;100.00;102136.50;3519307;39;100134;-84
2021/07/23 01:58:45;;;;;;;11.50;6.47;;;13.80;99.90;;;11.93;100.00;102142.34;3521720;39;100786;-83
2021/07/23 02:01:13;;;;;;;11.33;6.10;;;13.80;99.90;;;11.94;100.00;102155.63;3524550;39;103332;-83
2021/07/23 02:03:51;;;;;;;9.50;5.40;;;13.70;99.90;;;11.97;100.00;102176.00;3510769;39;102083;-83
2021/07/23 02:06:19;;;;;;;9.23;6.27;;;13.70;99.90;;;12.08;100.00;102159.91;3521805;39;100079;-82
2021/07/23 02:08:47;;;;;;;10.27;6.43;;;13.80;99.90;;;12.20;100.00;102126.72;3528363;39;101560;-84
2021/07/23 02:11:16;;;;;;;10.37;6.10;;;13.90;99.90;;;12.24;100.00;102072.63;3520096;39;103191;-83
2021/07/23 02:13:43;;;;;;;9.70;5.27;;;13.70;99.90;;;12.05;100.00;102056.34;3523849;39;102300;-83
2021/07/23 02:16:11;;;;;;;12.57;6.33;;;13.80;99.90;;;12.01;100.00;102048.66;3519729;39;100120;-82
2021/07/23 02:18:38;;;;;;;13.20;6.97;;;13.80;99.90;;;12.01;100.00;102052.19;3530058;39;102951;-82
2021/07/23 02:21:12;;;;;;;12.50;5.93;;;13.80;99.90;;;12.04;100.00;102054.63;3528090;39;104533;-84
2021/07/23 02:23:39;;;;;;;9.73;6.57;;;13.80;99.90;;;12.01;100.00;102051.34;3521260;39;100792;-83
2021/07/23 02:26:18;;;;;;;10.47;6.43;;;13.80;99.90;;;11.95;100.00;102071.50;3519336;39;100224;-83
2021/07/23 02:28:46;;;;;;;7.10;4.33;;;13.80;99.90;;;11.96;100.00;101188.00;3519941;39;102375;-83
2021/07/23 02:31:16;;;;;;;11.83;5.53;;;14.90;99.90;;;11.94;100.00;101417.13;3518973;39;103235;-82
2021/07/23 02:33:55;;;;;;;12.27;5.37;;;13.00;99.90;;;11.88;100.00;101627.69;3523367;39;102108;-83
2021/07/23 02:36:33;;;;;;;9.37;6.47;;;13.90;99.90;;;11.92;100.00;101698.03;3511547;39;100698;-83
2021/07/23 02:39:02;;;;;;;9.67;5.57;;;14.00;99.90;;;11.90;100.00;101727.66;3519254;39;102550;-84
2021/07/23 02:41:34;;;;;;;9.67;5.93;;;14.00;99.90;;;11.90;100.00;101743.75;3539266;39;102532;-83
2021/07/23 02:44:01;;;;;;;9.00;5.83;;;14.00;99.90;;;11.88;100.00;101759.97;3529465;39;101335;-83
2021/07/23 02:46:29;;;;;;;10.73;6.00;;;14.00;99.90;;;11.92;100.00;101779.34;3530115;39;100735;-83
2021/07/23 02:48:57;;;;;;;8.17;5.77;;;14.00;99.90;;;12.00;100.00;101789.41;3519575;39;101655;-83
2021/07/23 02:51:28;;;;;;;6.83;4.47;;;14.00;99.90;;;12.00;100.00;101797.47;3519066;39;103209;-83
2021/07/23 02:53:58;;;;;;;6.20;5.03;;;14.10;99.90;;;11.93;100.00;101790.94;3532029;39;101195;-84
2021/07/23 02:56:26;;;;;;;8.23;5.80;;;14.80;99.90;;;11.92;100.00;101808.84;3533352;39;100291;-83
2021/07/23 02:58:56;;;;;;;11.80;6.37;;;14.10;99.90;;;11.95;100.00;101810.44;3528358;39;102057;-82
2021/07/23 03:01:24;;;;;;;8.83;6.03;;;14.10;99.90;;;11.97;100.00;101817.38;3521046;39;103502;-80
2021/07/23 03:03:53;;;;;;;8.83;5.90;;;14.10;99.90;;;11.97;100.00;101819.22;3528105;39;102297;-81
2021/07/23 03:06:22;;;;;;;13.10;6.77;;;14.10;99.90;;;11.96;100.00;101818.34;3531311;39;100614;-83
2021/07/23 03:08:50;;;;;;;12.40;5.77;;;14.10;99.90;;;12.09;100.00;101820.84;3519312;39;102652;-83
2021/07/23 03:11:18;;;;;;;10.23;5.93;;;14.10;99.90;;;12.18;100.00;101820.91;3511096;39;103090;-82
2021/07/23 03:13:56;;;;;;;11.30;6.23;;;14.10;99.90;;;12.29;100.00;101806.56;3519802;39;102040;-82
2021/07/23 03:16:24;;;;;;;9.83;5.57;;;14.20;99.90;;;12.35;100.00;101784.56;3523077;39;100206;-83
2021/07/23 03:18:51;;;;;;;10.77;5.87;;;14.20;99.90;;;12.43;100.00;101775.84;3519107;39;102747;-83
2021/07/23 03:21:22;;;;;;;7.93;5.47;;;15.10;99.90;;;12.42;100.00;101742.78;3525295;39;102883;-83
2021/07/23 03:23:50;;;;;;;11.43;6.03;;;14.40;99.90;;;12.37;100.00;101715.47;3536646;39;100975;-82
2021/07/23 03:26:19;;;;;;;13.20;6.93;;;14.40;99.90;;;12.37;100.00;101725.34;3517291;39;100032;-83
2021/07/23 03:28:48;;;;;;;11.90;6.63;;;15.50;99.90;;;12.35;100.00;101719.31;3511972;39;103166;-84
2021/07/23 03:31:22;;;;;;;10.17;5.97;;;15.50;99.90;;;12.51;100.00;101716.94;3530414;39;100554;-83
2021/07/23 03:34:00;;;;;;;10.27;6.43;;;15.30;99.90;;;12.52;100.00;101692.66;3530013;39;100517;-84
2021/07/23 03:36:46;;;;;;;9.03;6.37;;;14.50;99.90;;;12.65;100.00;101695.09;3529374;39;99944;-83
2021/07/23 03:39:18;;;;;;;10.27;5.63;;;14.60;99.90;;;12.68;100.00;101686.75;3518489;39;101322;-84
2021/07/23 03:41:46;;;;;;;10.50;5.90;;;14.60;99.90;;;12.58;100.00;101672.47;3519345;39;102400;-83
2021/07/23 03:44:20;;;;;;;13.03;6.17;;;15.70;99.90;;;12.54;100.00;101662.97;3523444;39;102958;-81
2021/07/23 03:46:50;;;;;;;8.43;5.67;;;14.70;99.90;;;12.53;100.00;101664.81;3521913;39;100183;-83
2021/07/23 03:49:18;;;;;;;9.73;5.70;;;14.70;99.90;;;12.58;100.00;101661.72;3524162;39;102999;-82
2021/07/23 03:51:47;;;;;;;7.93;5.50;;;15.70;99.90;;;12.53;100.00;101658.59;3524290;39;101951;-81
2021/07/23 03:54:16;;;;;;;9.43;5.97;;;14.70;99.90;;;12.55;100.00;101670.91;3526192;39;101088;-81
2021/07/23 03:56:43;;;;;;;11.97;6.23;;;14.70;99.90;;;12.62;100.00;101668.50;3517809;39;100333;-82
2021/07/23 03:59:14;;;;;;;8.90;5.47;;;15.90;99.90;;;12.86;100.00;101655.53;3527984;39;102579;-83
2021/07/23 04:01:50;;;;;;;9.40;5.10;;;15.20;99.90;;;13.00;100.00;101640.00;3523942;39;103594;-83
2021/07/23 04:04:20;;;;;;;11.40;6.10;;;16.00;99.90;;;13.01;100.00;101604.94;3522679;39;101347;-81
2021/07/23 04:06:48;;;;;;;6.43;5.07;;;14.90;99.90;;;13.07;100.00;101595.47;3519939;39;100032;-82
2021/07/23 04:09:16;;;;;;;9.77;5.50;;;15.10;99.90;;;13.22;100.00;101586.00;3525827;39;102802;-82
2021/07/23 04:11:48;;;;;;;11.80;5.10;;;15.00;99.90;;;13.34;100.00;101565.19;3507818;39;103139;-82
2021/07/23 04:14:17;;;;;;;9.10;5.80;;;15.10;99.90;;;13.45;100.00;101541.66;3517053;39;102026;-82
2021/07/23 04:16:45;;;;;;;9.50;5.73;;;15.20;99.90;;;13.57;100.00;101537.81;3527060;39;100230;-82
2021/07/23 04:19:13;;;;;;;7.93;5.63;;;15.20;99.90;;;13.56;100.00;101530.72;3516101;39;102626;-82
2021/07/23 04:21:48;;;;;;;13.00;6.27;;;15.30;99.90;;;13.60;100.00;101515.97;3508904;39;103639;-83
2021/07/23 04:24:34;;;;;;;9.67;6.17;;;15.60;99.90;;;13.70;100.00;101515.97;3523349;39;100464;-81
2021/07/23 04:27:02;;;;;;;9.93;5.03;;;15.50;99.90;;;13.70;100.00;101510.56;3517594;39;100034;-82
2021/07/23 04:29:30;;;;;;;8.67;5.40;;;15.50;99.90;;;13.67;100.00;101500.09;3524134;39;102738;-82
2021/07/23 04:31:57;;;;;;;7.85;5.07;;;15.70;99.90;;;13.71;100.00;101514.13;3525708;39;103520;-82
2021/07/23 04:34:27;;;;;;;9.53;4.87;;;15.70;99.90;;;13.66;100.00;101514.53;3507810;39;102575;-82
2021/07/23 04:37:07;;;;;;;11.90;5.37;;;16.20;99.90;;;13.85;100.00;101517.13;3517574;39;100396;-81
2021/07/23 04:39:39;;;;;;;9.60;5.85;;;15.80;99.90;;;13.88;100.00;101510.63;3544061;39;101577;-83
2021/07/23 04:42:10;;;;;;;9.30;5.97;;;15.90;99.90;;;13.95;100.00;101500.97;3526811;39;102091;-83
2021/07/23 04:44:40;;;;;;;7.28;4.63;;;15.90;99.90;;;13.96;100.00;101494.59;3531180;39;100190;-82
2021/07/23 04:47:07;;;;;;;9.25;5.35;;;16.00;99.90;;;14.04;100.00;101494.66;3518410;39;99958;-81
2021/07/23 04:49:40;;;;;;;10.15;6.38;;;16.10;99.90;;;14.01;100.00;101479.66;3511692;39;103791;-81
2021/07/23 04:52:15;;;;;;;11.00;6.07;;;16.80;99.90;;;13.94;100.00;101469.66;3528637;39;101467;-82
2021/07/23 04:55:18;;;;;;;8.65;5.22;;;16.20;99.90;;;13.89;100.00;101447.72;3509170;39;101024;-83
2021/07/23 04:58:13;;;;;;;12.10;4.72;;;16.10;99.90;;;13.96;100.00;101456.91;3526625;39;100208;-83
2021/07/23 05:00:40;;;;;;;8.75;5.35;;;16.30;99.90;;;14.28;100.00;101459.94;3529477;39;100926;-83
2021/07/23 05:03:07;;;;;;;5.60;5.05;;;16.30;99.90;;;14.26;100.00;101445.75;3521656;39;101386;-83
2021/07/23 05:05:39;;;;;;;10.95;5.93;;;16.40;99.90;;;14.30;100.00;101447.16;3527484;39;100070;-83
2021/07/23 05:08:09;;;;;;;8.30;5.80;;;16.40;99.90;;;14.22;100.00;101451.59;3533475;39;100355;-84
2021/07/23 05:10:37;;;;;;;12.27;6.47;;;16.40;99.90;;;14.28;100.00;101456.38;3521461;39;101049;-82
2021/07/23 05:13:05;;;;;;;9.15;5.53;;;16.40;99.90;;;14.60;100.00;101469.31;3527644;39;103098;-83
2021/07/23 05:15:33;;;;;;;4.85;4.28;;;16.50;99.90;;;14.74;100.00;101463.38;3528319;39;102226;-82
2021/07/23 05:18:01;;;;;;;7.90;5.03;;;16.60;99.90;;;15.01;100.00;101457.84;3528857;39;100168;-82
2021/07/23 05:20:28;;;;;;;9.45;4.55;;;16.60;99.90;;;15.19;100.00;101451.56;3528410;39;100700;-84
2021/07/23 05:22:57;;;;;;;9.43;5.35;;;17.10;99.90;;;15.30;100.00;101451.28;3528662;39;101249;-82
2021/07/23 05:25:24;;;;;;;10.77;5.82;;;16.90;99.90;;;15.37;100.00;101471.19;3527802;39;101334;-81
2021/07/23 05:27:51;;;;;;;7.50;5.05;;;17.00;99.90;;;15.44;100.00;101488.44;3521131;39;100496;-82
2021/07/23 05:30:19;;;;;;;10.07;6.38;;;17.10;99.90;;;15.50;100.00;101486.94;3521071;39;102075;-83
2021/07/23 05:32:46;;;;;;;8.57;5.20;;;17.20;99.90;;;15.56;100.00;101478.25;3527498;39;101309;-82
2021/07/23 05:35:13;;;;;;;9.18;5.72;;;17.30;99.90;;;15.65;100.00;101456.53;3527814;39;102458;-84
2021/07/23 05:37:40;;;;;;;9.30;5.65;;;17.40;99.90;;;15.74;100.00;101452.84;3539739;39;99955;-85
2021/07/23 05:40:11;;;;;;;8.35;4.78;;;17.60;99.90;;;15.71;100.00;101436.97;3532766;39;100985;-83
2021/07/23 05:42:39;;;;;;;9.00;5.93;;;17.70;99.90;;;15.91;100.00;101415.97;3526729;39;103295;-83
2021/07/23 05:45:08;;;;;;;8.50;5.00;;;17.80;99.90;;;16.05;100.00;101393.72;3522194;39;100041;-83
2021/07/23 05:47:35;;;;;;;10.60;5.97;;;17.80;99.90;;;16.12;100.00;101358.78;3515636;39;100236;-83
2021/07/23 05:50:02;;;;;;;8.10;5.75;;;18.50;99.90;;;16.27;100.00;101334.66;3514271;39;101018;-83
2021/07/23 05:52:29;;;;;;;10.38;6.30;;;18.10;99.90;;;16.01;100.00;101308.69;3516782;39;101084;-82
2021/07/23 05:54:56;;;;;;;11.75;6.70;;;18.20;99.90;;;16.12;100.00;101280.50;3507191;39;102638;-84
2021/07/23 05:57:24;;;;;;;9.48;5.85;;;18.40;99.90;;;16.15;100.00;101259.41;3518944;39;100819;-84
2021/07/23 05:59:51;;;;;;;8.02;4.90;;;18.40;99.90;;;16.43;100.00;101245.50;3524676;39;103621;-83
2021/07/23 06:02:18;;;;;;;7.05;4.88;;;19.20;99.90;;;16.78;100.00;101236.13;3520428;39;101737;-83
2021/07/23 06:04:45;;;;;;;14.65;6.88;;;18.70;99.90;;;16.55;100.00;101198.19;3525469;39;102307;-83
2021/07/23 06:07:14;;;;;;;11.50;6.40;;;18.80;99.90;;;16.74;100.00;101176.19;3519556;39;100226;-83
2021/07/23 06:09:41;;;;;;;9.10;6.28;;;18.60;99.90;;;16.77;100.00;101156.06;3520555;39;100945;-84
2021/07/23 06:12:09;;;;;;;9.98;6.40;;;19.00;99.90;;;16.68;100.00;101139.06;3523799;39;103265;-82
2021/07/23 06:14:37;;;;;;;11.30;6.43;;;19.10;99.90;;;16.59;100.00;101117.63;3514565;39;100453;-85
2021/07/23 06:17:05;;;;;;;9.40;5.35;;;19.20;99.90;;;16.78;100.00;101115.34;3520017;39;100111;-84
2021/07/23 06:19:32;;;;;;;8.98;5.90;;;19.30;99.90;;;16.90;100.00;101096.03;3516406;39;100654;-84
2021/07/23 06:21:59;;;;;;;9.88;5.22;;;19.90;99.90;;;17.14;100.00;101082.31;3509437;39;101271;-84
2021/07/23 06:24:26;;;;;;;11.93;6.65;;;19.40;99.90;;;17.12;100.00;101062.72;3511250;39;100259;-83
2021/07/23 06:26:53;;;;;;;8.07;5.18;;;19.50;99.90;;;17.49;100.00;101035.66;3511005;39;101076;-84
2021/07/23 06:29:20;;;;;;;8.27;5.22;;;19.70;99.90;;;17.49;100.00;100995.06;3510650;39;101133;-84
2021/07/23 06:31:48;;;;;;;11.95;5.85;;;19.80;99.90;;;17.85;100.00;100962.69;3510272;39;101048;-84
2021/07/23 06:34:15;;;;;;;9.07;5.57;;;19.90;99.90;;;17.94;100.00;100942.59;3511456;39;100689;-85
2021/07/23 06:36:42;;;;;;;10.88;6.20;;;20.10;99.90;;;17.79;100.00;100914.75;3532181;39;100060;-83
2021/07/23 06:39:09;;;;;;;10.15;5.88;;;20.30;99.90;;;18.15;100.00;100901.19;3525632;39;100294;-83
2021/07/23 06:41:37;;;;;;;10.65;6.35;;;20.50;99.90;;;18.16;100.00;100870.38;3513470;39;100937;-81
2021/07/23 06:44:04;;;;;;;11.75;6.78;;;20.60;99.90;;;18.15;100.00;100835.34;3519153;39;100717;-83
2021/07/23 06:46:31;;;;;;;9.02;5.97;;;20.80;99.90;;;18.10;100.00;100821.53;3520832;39;100115;-83
2021/07/23 06:48:59;;;;;;;7.95;4.85;;;21.30;99.90;;;18.18;100.00;100819.53;3521754;39;100680;-83
2021/07/23 06:51:26;;;;;;;8.80;5.35;;;21.90;99.90;;;18.29;100.00;100816.31;3522192;39;103127;-83
2021/07/23 06:53:54;;;;;;;12.35;5.68;;;21.00;99.90;;;18.44;100.00;100801.81;3534595;39;100585;-82
2021/07/23 06:56:22;;;;;;;10.52;6.00;;;21.20;99.90;;;18.57;100.00;100789.22;3522420;39;100276;-82
2021/07/23 06:58:48;;;;;;;9.75;5.53;;;21.30;99.90;;;18.85;100.00;100761.28;3518772;39;101468;-83
2021/07/23 07:01:16;;;;;;;6.97;5.00;;;22.40;99.90;;;19.39;100.00;100747.72;3528081;39;101098;-82
2021/07/23 07:03:43;;;;;;;9.38;5.50;;;21.70;99.90;;;20.05;100.00;100693.50;3534336;39;102041;-82
2021/07/23 07:06:11;;;;;;;10.30;6.53;;;21.90;99.90;;;20.01;100.00;100637.97;3527757;39;100053;-82
2021/07/23 07:08:38;;;;;;;9.07;5.43;;;22.80;99.90;;;19.59;100.00;100612.09;3524721;39;102946;-81
2021/07/23 07:11:05;;;;;;;8.18;5.43;;;22.40;99.90;;;19.55;100.00;100608.94;3527186;39;101361;-83
2021/07/23 07:13:32;;;;;;;11.13;6.15;;;22.60;99.90;;;19.12;100.00;100607.63;3526564;39;100262;-81
2021/07/23 07:16:01;;;;;;;13.88;6.20;;;22.80;99.90;;;19.60;100.00;100603.72;3526849;39;100225;-82
2021/07/23 07:18:28;;;;;;;11.43;5.03;;;22.90;99.90;;;19.75;100.00;100591.81;3528305;39;100976;-84
2021/07/23 07:20:55;;;;;;;7.78;5.43;;;23.10;99.90;;;19.95;100.00;100581.75;3539410;39;100157;-84
2021/07/23 07:23:24;;;;;;;8.68;5.50;;;24.00;99.90;;;20.40;100.00;100569.09;3527879;39;100495;-84
2021/07/23 07:25:51;;;;;;;8.80;5.00;;;23.30;99.90;;;20.78;100.00;100544.66;3518776;39;100075;-84
2021/07/23 07:28:18;;;;;;;11.15;5.00;;;23.50;99.90;;;20.56;100.00;100532.44;3517447;39;101785;-83
2021/07/23 07:30:47;;;;;;;7.50;4.30;;;24.10;99.70;;;21.31;100.00;100523.38;3517756;39;101123;-84
2021/07/23 07:33:14;;;;;;;6.82;4.57;;;23.90;99.00;;;20.70;100.00;100526.72;3507535;39;101079;-82
2021/07/23 07:35:44;;;;;;;11.25;5.32;;;24.10;98.10;;;20.40;100.00;100526.44;3517803;39;100111;-82
2021/07/23 07:38:12;;;;;;;9.27;5.03;;;24.30;97.10;;;21.00;100.00;100526.13;3515875;39;100803;-84
2021/07/23 07:40:40;;;;;;;8.45;5.40;;;25.20;96.60;;;20.58;100.00;100530.34;3518011;39;101254;-84
2021/07/23 07:43:08;;;;;;;9.63;5.40;;;24.30;94.80;;;20.36;100.00;100538.00;3520848;39;100815;-82
2021/07/23 07:45:36;;;;;;;7.40;4.45;;;25.20;94.20;;;20.92;100.00;100538.06;3526414;39;100167;-83
2021/07/23 07:48:04;;;;;;;6.03;4.15;;;24.20;93.10;;;21.55;100.00;100520.84;3527252;39;104554;-83
2021/07/23 07:50:31;;;;;;;6.10;4.82;;;25.00;92.20;;;21.42;100.00;100513.66;3525492;39;103361;-83
2021/07/23 07:52:59;;;;;;;5.72;4.15;;;25.00;91.80;;;22.03;100.00;100507.38;3524711;39;100886;-82
2021/07/23 07:55:26;;;;;;;6.03;3.72;;;25.60;91.80;;;22.71;100.00;100499.78;3542977;39;100647;-83
2021/07/23 07:57:55;;;;;;;5.57;3.92;;;25.40;91.20;;;22.72;100.00;100497.88;3527233;39;101082;-84
2021/07/23 08:00:22;;;;;;;8.35;3.45;;;26.10;89.50;;;22.95;100.00;100503.44;3520957;39;100054;-84
2021/07/23 08:02:49;;;;;;;8.75;4.40;;;25.90;87.40;;;22.11;100.00;100499.75;3515499;39;101922;-83
2021/07/23 08:05:16;;;;;;;8.27;4.50;;;26.10;81.80;;;22.29;100.00;100501.59;3506373;39;100220;-82
2021/07/23 08:07:43;;;;;;;6.10;3.95;;;26.40;79.40;;;22.51;100.00;100491.84;3506012;39;102902;-83
2021/07/23 08:10:14;;;;;;;4.30;3.30;;;26.50;79.00;;;22.92;100.00;100495.69;3523526;39;101442;-83
2021/07/23 08:12:41;;;;;;;6.63;3.58;;;26.90;77.30;;;23.02;100.00;100495.94;3524871;39;100716;-85
2021/07/23 08:15:12;;;;;;;5.80;4.28;;;27.20;76.20;;;23.47;100.00;100496.25;3518404;39;100062;-82
2021/07/23 08:17:39;;;;;;;7.75;3.97;;;27.50;74.40;;;22.56;100.00;100492.00;3525791;39;100379;-81
2021/07/23 08:20:08;;;;;;;6.20;4.03;;;27.70;68.90;;;22.19;100.00;100493.97;3525997;39;100845;-83
2021/07/23 08:22:35;;;;;;;7.32;3.40;;;27.90;67.70;;;23.91;100.00;100480.31;3519843;39;102411;-83
2021/07/23 08:25:02;;;;;;;8.20;4.03;;;28.00;67.00;;;24.34;100.00;100475.22;3516696;39;100317;-84
2021/07/23 08:27:29;;;;;;;5.78;4.03;;;28.20;66.00;;;24.45;100.00;100472.69;3517181;39;101207;-84
2021/07/23 08:29:58;;;;;;;5.75;4.25;;;28.60;64.30;;;22.93;100.00;100481.81;3521350;39;103284;-82
2021/07/23 08:32:26;;;;;;;11.23;3.95;;;29.20;60.70;;;22.60;100.00;100477.91;3527422;39;100037;-82
2021/07/23 08:34:57;;;;;;;6.45;3.78;;;28.80;58.30;;;23.92;100.00;100473.78;3523170;39;99995;-82
2021/07/23 08:37:24;;;;;;;8.38;3.28;;;28.90;58.40;;;24.31;100.00;100475.72;3528219;39;100732;-83
2021/07/23 08:39:51;;;;;;;8.23;4.30;;;29.60;58.20;;;24.47;100.00;100473.28;3525768;39;101369;-82
2021/07/23 08:42:30;;;;;;;5.53;4.32;;;29.10;57.70;;;22.98;100.00;100469.38;3526366;39;102798;-82
2021/07/23 08:44:58;;;;;;;11.07;3.63;;;29.30;56.20;;;23.93;100.00;100462.59;3524832;39;100454;-84
2021/07/23 08:47:27;;;;;;;13.20;3.70;;;29.40;55.70;;;23.89;100.00;100463.31;3525522;39;101469;-84
2021/07/23 08:49:54;;;;;;;6.13;3.78;;;30.00;55.80;;;24.87;100.00;100467.69;3525163;39;101393;-83
2021/07/23 08:52:39;;;;;;;7.40;3.60;;;29.70;55.60;;;25.23;100.00;100463.66;3525652;39;100276;-83
2021/07/23 08:55:08;;;;;;;6.95;4.25;;;30.00;54.50;;;24.86;100.00;100466.84;3526981;39;100431;-82
2021/07/23 08:57:35;;;;;;;5.18;3.42;;;30.20;54.20;;;23.39;100.00;100462.97;3525716;39;101427;-82
2021/07/23 09:00:07;;;;;;;7.85;4.85;;;30.40;52.30;;;23.35;100.00;100461.81;3520234;39;101108;-83
2021/07/23 09:02:56;;;;;;;6.45;4.07;;;30.60;50.80;;;23.56;100.00;100461.25;3515652;39;100501;-82
2021/07/23 09:05:27;;;;;;;8.45;4.63;;;30.60;50.30;;;22.98;100.00;100459.31;3516431;39;100152;-81
2021/07/23 09:07:54;;;;;;;7.00;4.10;;;30.80;49.90;;;22.76;100.00;100460.91;3523394;39;103297;-84
2021/07/23 09:10:24;;;;;;;7.40;3.92;;;30.80;48.70;;;23.70;100.00;100456.34;3532145;39;101685;-82
2021/07/23 09:12:59;;;;;;;7.38;4.15;;;30.30;48.90;;;24.71;100.00;100458.41;3535134;39;99946;-82
2021/07/23 09:15:30;;;;;;;7.35;4.07;;;30.90;49.90;;;25.53;100.00;100455.91;3514712;39;100132;-82
2021/07/23 09:17:58;;;;;;;6.40;3.63;;;30.60;49.90;;;26.00;100.00;100456.28;3523662;39;103239;-82
2021/07/23 09:20:30;;;;;;;8.70;3.78;;;30.80;49.80;;;25.92;100.00;100456.75;3519361;39;101127;-82
2021/07/23 09:22:59;;;;;;;8.52;4.15;;;31.00;49.70;;;26.16;100.00;100459.22;3517481;39;100113;-81
2021/07/23 09:25:42;;;;;;;6.10;3.65;;;31.20;49.40;;;26.13;100.00;100453.16;3515113;39;100231;-83
2021/07/23 09:28:31;;;;;;;6.88;4.53;;;31.50;48.90;;;26.12;100.00;100448.75;3516598;39;102820;-80
2021/07/23 09:31:01;;;;;;;7.47;4.20;;;31.70;48.70;;;26.19;100.00;100454.06;3527899;39;102425;-84
2021/07/23 09:33:37;;;;;;;5.10;3.00;;;31.90;48.00;;;26.36;100.00;100443.84;3528102;39;100437;-83
2021/07/23 09:36:08;;;;;;;7.65;3.78;;;32.00;47.40;;;25.51;100.00;100449.00;3518301;39;100008;-83
2021/07/23 09:38:38;;;;;;;5.38;3.78;;;32.20;46.90;;;25.84;100.00;100446.19;3516714;39;103180;-82
2021/07/23 09:41:10;;;;;;;6.38;3.60;;;32.30;46.80;;;25.76;100.00;100439.25;3525571;39;101071;-80
2021/07/23 09:43:40;;;;;;;5.32;3.80;;;32.40;46.40;;;26.01;100.00;100441.50;3527171;39;101684;-83
2021/07/23 09:46:26;;;;;;;5.80;3.65;;;32.40;46.30;;;25.82;100.00;100436.59;3525818;39;100292;-83
2021/07/23 09:48:57;;;;;;;6.68;3.78;;;32.60;46.00;;;25.73;100.00;100430.72;3526332;39;101080;-85
2021/07/23 09:51:26;;;;;;;8.50;3.30;;;32.40;45.50;;;25.85;100.00;100434.16;3536883;39;101542;-84
2021/07/23 09:53:54;;;;;;;4.82;3.53;;;32.50;45.70;;;25.53;100.00;100435.91;3538372;39;99953;-83
2021/07/23 09:56:25;;;;;;;4.80;3.03;;;32.60;45.60;;;26.43;100.00;100428.00;3518511;39;99995;-84
2021/07/23 09:58:57;;;;;;;6.97;3.92;;;32.60;45.50;;;26.29;100.00;100424.03;3522056;39;101240;-85
2021/07/23 10:01:31;;;;;;;5.35;2.80;;;32.70;45.20;;;26.34;100.00;100425.97;3520207;39;102916;-84
2021/07/23 10:04:09;;;;;;;6.53;3.33;;;32.70;44.60;;;26.75;100.00;100416.22;3525756;39;102273;-83
2021/07/23 10:06:48;;;;;;;3.45;3.15;;;32.90;44.20;;;26.52;100.00;100420.13;3526023;39;100085;-82
2021/07/23 10:09:23;;;;;;;4.75;3.05;;;33.00;43.90;;;26.79;100.00;100418.19;3531591;39;102681;-83